sensor_id;sensor_type;location;lat;lon;timestamp;temperature;humidity
25753;DHT22;13600;50.816;4.416;2022-12-10T00:01:39;2.50;99.90
25753;DHT22;13600;50.816;4.416;2022-12-10T00:04:06;2.50;99.90
25753;DHT22;13600;50.816;4.416;2022-12-10T00:06:34;2.60;99.90
25753;DHT22;13600;50.816;4.416;2022-12-10T00:09:03;2.60;99.90
25753;DHT22;13600;50.816;4.416;2022-12-10T00:11:36;2.50;99.90
25753;DHT22;13600;50.816;4.416;2022-12-10T00:14:02;2.50;99.90
25753;DHT22;13600;50.816;4.416;2022-12-10T00:16:28;2.60;99.90
25753;DHT22;13600;50.816;4.416;2022-12-10T00:18:56;2.60;99.90
25753;DHT22;13600;50.816;4.416;2022-12-10T00:21:27;2.60;99.90
25753;DHT22;13600;50.816;4.416;2022-12-10T00:23:53;2.60;99.90
25753;DHT22;13600;50.816;4.416;2022-12-10T00:26:25;2.50;99.90
25753;DHT22;13600;50.816;4.416;2022-12-10T00:28:52;2.50;99.90
25753;DHT22;13600;50.816;4.416;2022-12-10T00:31:21;2.60;99.90
25753;DHT22;13600;50.816;4.416;2022-12-10T00:33:47;2.70;99.90
25753;DHT22;13600;50.816;4.416;2022-12-10T00:36:28;2.50;99.90
25753;DHT22;13600;50.816;4.416;2022-12-10T00:38:54;2.30;99.90
25753;DHT22;13600;50.816;4.416;2022-12-10T00:41:21;2.40;99.90
25753;DHT22;13600;50.816;4.416;2022-12-10T00:43:47;2.50;99.90
25753;DHT22;13600;50.816;4.416;2022-12-10T00:46:14;2.40;99.90
25753;DHT22;13600;50.816;4.416;2022-12-10T00:48:41;2.50;99.90
25753;DHT22;13600;50.816;4.416;2022-12-10T00:51:12;2.20;99.90
25753;DHT22;13600;50.816;4.416;2022-12-10T00:53:40;2.00;99.90
25753;DHT22;13600;50.816;4.416;2022-12-10T00:56:07;2.00;99.90
25753;DHT22;13600;50.816;4.416;2022-12-10T00:58:34;2.00;99.90
25753;DHT22;13600;50.816;4.416;2022-12-10T01:03:41;1.60;99.90
25753;DHT22;13600;50.816;4.416;2022-12-10T01:06:17;1.60;99.90
25753;DHT22;13600;50.816;4.416;2022-12-10T01:08:44;1.50;99.90
25753;DHT22;13600;50.816;4.416;2022-12-10T01:11:11;1.60;99.90
25753;DHT22;13600;50.816;4.416;2022-12-10T01:13:37;1.70;99.90
25753;DHT22;13600;50.816;4.416;2022-12-10T01:16:05;1.70;99.90
25753;DHT22;13600;50.816;4.416;2022-12-10T01:18:31;1.80;99.90
25753;DHT22;13600;50.816;4.416;2022-12-10T01:21:02;1.90;99.90
25753;DHT22;13600;50.816;4.416;2022-12-10T01:23:32;2.00;99.90
25753;DHT22;13600;50.816;4.416;2022-12-10T01:26:00;1.90;99.90
25753;DHT22;13600;50.816;4.416;2022-12-10T01:28:28;2.00;99.90
25753;DHT22;13600;50.816;4.416;2022-12-10T01:30:54;2.00;99.90
25753;DHT22;13600;50.816;4.416;2022-12-10T01:33:19;2.00;99.90
25753;DHT22;13600;50.816;4.416;2022-12-10T01:35:45;1.90;99.90
25753;DHT22;13600;50.816;4.416;2022-12-10T01:38:10;1.90;99.90
25753;DHT22;13600;50.816;4.416;2022-12-10T01:40:39;1.80;99.90
25753;DHT22;13600;50.816;4.416;2022-12-10T01:43:05;1.80;99.90
25753;DHT22;13600;50.816;4.416;2022-12-10T01:45:30;1.70;99.90
25753;DHT22;13600;50.816;4.416;2022-12-10T01:47:56;1.80;99.90
25753;DHT22;13600;50.816;4.416;2022-12-10T01:50:22;1.90;99.90
25753;DHT22;13600;50.816;4.416;2022-12-10T01:52:48;2.00;99.90
25753;DHT22;13600;50.816;4.416;2022-12-10T01:58:08;2.00;99.90
25753;DHT22;13600;50.816;4.416;2022-12-10T02:00:37;1.90;99.90
25753;DHT22;13600;50.816;4.416;2022-12-10T02:03:10;1.90;99.90
25753;DHT22;13600;50.816;4.416;2022-12-10T02:05:44;2.10;99.90
25753;DHT22;13600;50.816;4.416;2022-12-10T02:08:19;1.90;99.90
25753;DHT22;13600;50.816;4.416;2022-12-10T02:11:14;2.00;99.90
25753;DHT22;13600;50.816;4.416;2022-12-10T02:13:51;1.90;99.90
25753;DHT22;13600;50.816;4.416;2022-12-10T02:16:44;2.00;99.90
25753;DHT22;13600;50.816;4.416;2022-12-10T02:19:49;2.00;99.90
25753;DHT22;13600;50.816;4.416;2022-12-10T02:22:19;1.90;99.90
25753;DHT22;13600;50.816;4.416;2022-12-10T02:24:47;1.90;99.90
25753;DHT22;13600;50.816;4.416;2022-12-10T02:29:44;1.80;99.90
25753;DHT22;13600;50.816;4.416;2022-12-10T02:32:19;1.80;99.90
25753;DHT22;13600;50.816;4.416;2022-12-10T02:34:57;1.90;99.90
25753;DHT22;13600;50.816;4.416;2022-12-10T02:37:30;1.90;99.90
25753;DHT22;13600;50.816;4.416;2022-12-10T02:39:58;1.90;99.90
25753;DHT22;13600;50.816;4.416;2022-12-10T02:42:25;1.80;99.90
25753;DHT22;13600;50.816;4.416;2022-12-10T02:44:52;1.90;99.90
25753;DHT22;13600;50.816;4.416;2022-12-10T02:47:19;1.90;99.90
25753;DHT22;13600;50.816;4.416;2022-12-10T02:49:50;1.90;99.90
25753;DHT22;13600;50.816;4.416;2022-12-10T02:52:19;1.70;99.90
25753;DHT22;13600;50.816;4.416;2022-12-10T02:54:47;1.70;99.90
25753;DHT22;13600;50.816;4.416;2022-12-10T03:08:18;1.70;99.90
25753;DHT22;13600;50.816;4.416;2022-12-10T03:10:58;1.80;99.90
25753;DHT22;13600;50.816;4.416;2022-12-10T03:14:02;2.00;99.90
25753;DHT22;13600;50.816;4.416;2022-12-10T03:16:35;2.00;99.90
25753;DHT22;13600;50.816;4.416;2022-12-10T03:19:06;2.00;99.90
25753;DHT22;13600;50.816;4.416;2022-12-10T03:21:34;2.10;99.90
25753;DHT22;13600;50.816;4.416;2022-12-10T03:24:01;2.20;99.90
25753;DHT22;13600;50.816;4.416;2022-12-10T03:26:27;2.20;99.90
25753;DHT22;13600;50.816;4.416;2022-12-10T03:29:00;2.20;99.90
25753;DHT22;13600;50.816;4.416;2022-12-10T03:31:29;2.10;99.90
25753;DHT22;13600;50.816;4.416;2022-12-10T03:33:55;2.00;99.90
25753;DHT22;13600;50.816;4.416;2022-12-10T03:36:22;1.90;99.90
25753;DHT22;13600;50.816;4.416;2022-12-10T03:38:48;1.90;99.90
25753;DHT22;13600;50.816;4.416;2022-12-10T03:41:14;2.00;99.90
25753;DHT22;13600;50.816;4.416;2022-12-10T03:43:57;1.90;99.90
25753;DHT22;13600;50.816;4.416;2022-12-10T03:46:25;2.00;99.90
25753;DHT22;13600;50.816;4.416;2022-12-10T03:48:52;2.00;99.90
25753;DHT22;13600;50.816;4.416;2022-12-10T03:51:18;2.00;99.90
25753;DHT22;13600;50.816;4.416;2022-12-10T03:53:44;1.90;99.90
25753;DHT22;13600;50.816;4.416;2022-12-10T03:56:09;2.00;99.90
25753;DHT22;13600;50.816;4.416;2022-12-10T03:58:35;1.90;99.90
25753;DHT22;13600;50.816;4.416;2022-12-10T04:01:02;1.90;99.90
25753;DHT22;13600;50.816;4.416;2022-12-10T04:03:27;2.10;99.90
25753;DHT22;13600;50.816;4.416;2022-12-10T04:05:53;2.10;99.90
25753;DHT22;13600;50.816;4.416;2022-12-10T04:08:19;2.10;99.90
25753;DHT22;13600;50.816;4.416;2022-12-10T04:10:44;2.10;99.90
25753;DHT22;13600;50.816;4.416;2022-12-10T04:13:10;2.10;99.90
25753;DHT22;13600;50.816;4.416;2022-12-10T04:15:56;2.20;99.90
25753;DHT22;13600;50.816;4.416;2022-12-10T04:18:40;2.10;99.90
25753;DHT22;13600;50.816;4.416;2022-12-10T04:21:05;2.00;99.90
25753;DHT22;13600;50.816;4.416;2022-12-10T04:23:49;2.10;99.90
25753;DHT22;13600;50.816;4.416;2022-12-10T04:26:50;2.30;99.90
25753;DHT22;13600;50.816;4.416;2022-12-10T04:29:25;2.40;99.90
25753;DHT22;13600;50.816;4.416;2022-12-10T04:31:51;2.20;99.90
25753;DHT22;13600;50.816;4.416;2022-12-10T04:34:18;2.10;99.90
25753;DHT22;13600;50.816;4.416;2022-12-10T04:36:43;2.20;99.90
25753;DHT22;13600;50.816;4.416;2022-12-10T04:39:09;2.40;99.90
25753;DHT22;13600;50.816;4.416;2022-12-10T04:41:41;2.50;99.90
25753;DHT22;13600;50.816;4.416;2022-12-10T04:44:08;2.50;99.90
25753;DHT22;13600;50.816;4.416;2022-12-10T04:46:34;2.40;99.90
25753;DHT22;13600;50.816;4.416;2022-12-10T04:48:59;2.00;99.90
25753;DHT22;13600;50.816;4.416;2022-12-10T04:51:25;2.00;99.90
25753;DHT22;13600;50.816;4.416;2022-12-10T04:53:51;2.10;99.90
25753;DHT22;13600;50.816;4.416;2022-12-10T04:56:16;1.90;99.90
25753;DHT22;13600;50.816;4.416;2022-12-10T04:58:42;1.90;99.90
25753;DHT22;13600;50.816;4.416;2022-12-10T05:01:10;2.00;99.90
25753;DHT22;13600;50.816;4.416;2022-12-10T05:03:36;2.00;99.90
25753;DHT22;13600;50.816;4.416;2022-12-10T05:06:05;2.00;99.90
25753;DHT22;13600;50.816;4.416;2022-12-10T05:08:31;2.10;99.90
25753;DHT22;13600;50.816;4.416;2022-12-10T05:11:05;2.00;99.90
25753;DHT22;13600;50.816;4.416;2022-12-10T05:13:31;2.00;99.90
25753;DHT22;13600;50.816;4.416;2022-12-10T05:15:57;1.90;99.90
25753;DHT22;13600;50.816;4.416;2022-12-10T05:18:23;1.80;99.90
25753;DHT22;13600;50.816;4.416;2022-12-10T05:20:49;1.80;99.90
25753;DHT22;13600;50.816;4.416;2022-12-10T05:23:15;1.90;99.90
25753;DHT22;13600;50.816;4.416;2022-12-10T05:28:25;1.90;99.90
25753;DHT22;13600;50.816;4.416;2022-12-10T05:30:51;2.00;99.90
25753;DHT22;13600;50.816;4.416;2022-12-10T05:33:17;2.00;99.90
25753;DHT22;13600;50.816;4.416;2022-12-10T05:35:43;1.90;99.90
25753;DHT22;13600;50.816;4.416;2022-12-10T05:38:08;1.90;99.90
25753;DHT22;13600;50.816;4.416;2022-12-10T05:40:38;1.90;99.90
25753;DHT22;13600;50.816;4.416;2022-12-10T05:43:04;1.80;99.90
25753;DHT22;13600;50.816;4.416;2022-12-10T05:45:31;1.90;99.90
25753;DHT22;13600;50.816;4.416;2022-12-10T05:47:57;2.00;99.90
25753;DHT22;13600;50.816;4.416;2022-12-10T05:50:23;2.10;99.90
25753;DHT22;13600;50.816;4.416;2022-12-10T05:52:50;2.10;99.90
25753;DHT22;13600;50.816;4.416;2022-12-10T05:55:16;2.10;99.90
25753;DHT22;13600;50.816;4.416;2022-12-10T05:57:42;2.10;99.90
25753;DHT22;13600;50.816;4.416;2022-12-10T06:00:08;2.00;99.90
25753;DHT22;13600;50.816;4.416;2022-12-10T06:02:34;1.80;99.90
25753;DHT22;13600;50.816;4.416;2022-12-10T06:05:00;1.90;99.90
25753;DHT22;13600;50.816;4.416;2022-12-10T06:07:26;1.90;99.90
25753;DHT22;13600;50.816;4.416;2022-12-10T06:09:52;1.70;99.90
25753;DHT22;13600;50.816;4.416;2022-12-10T06:12:17;1.80;99.90
25753;DHT22;13600;50.816;4.416;2022-12-10T06:14:43;1.70;99.90
25753;DHT22;13600;50.816;4.416;2022-12-10T06:17:09;1.60;99.90
25753;DHT22;13600;50.816;4.416;2022-12-10T06:19:35;1.70;99.90
25753;DHT22;13600;50.816;4.416;2022-12-10T06:22:00;1.70;99.90
25753;DHT22;13600;50.816;4.416;2022-12-10T06:24:26;1.60;99.90
25753;DHT22;13600;50.816;4.416;2022-12-10T06:26:52;1.60;99.90
25753;DHT22;13600;50.816;4.416;2022-12-10T06:29:18;1.50;99.90
25753;DHT22;13600;50.816;4.416;2022-12-10T06:31:44;1.60;99.90
25753;DHT22;13600;50.816;4.416;2022-12-10T06:34:09;1.80;99.90
25753;DHT22;13600;50.816;4.416;2022-12-10T06:36:35;1.80;99.90
25753;DHT22;13600;50.816;4.416;2022-12-10T06:39:04;1.80;99.90
25753;DHT22;13600;50.816;4.416;2022-12-10T06:41:30;1.80;99.90
25753;DHT22;13600;50.816;4.416;2022-12-10T06:43:55;1.70;99.90
25753;DHT22;13600;50.816;4.416;2022-12-10T06:46:25;1.80;99.90
25753;DHT22;13600;50.816;4.416;2022-12-10T06:48:51;1.80;99.90
25753;DHT22;13600;50.816;4.416;2022-12-10T06:51:17;1.90;99.90
25753;DHT22;13600;50.816;4.416;2022-12-10T06:53:43;1.80;99.90
25753;DHT22;13600;50.816;4.416;2022-12-10T06:56:12;1.90;99.90
25753;DHT22;13600;50.816;4.416;2022-12-10T06:58:39;1.80;99.90
25753;DHT22;13600;50.816;4.416;2022-12-10T07:01:09;1.80;99.90
25753;DHT22;13600;50.816;4.416;2022-12-10T07:03:35;1.80;99.90
25753;DHT22;13600;50.816;4.416;2022-12-10T07:06:01;1.70;99.90
25753;DHT22;13600;50.816;4.416;2022-12-10T07:08:28;1.70;99.90
25753;DHT22;13600;50.816;4.416;2022-12-10T07:10:54;1.60;99.90
25753;DHT22;13600;50.816;4.416;2022-12-10T07:13:20;1.50;99.90
25753;DHT22;13600;50.816;4.416;2022-12-10T07:15:46;1.70;99.90
25753;DHT22;13600;50.816;4.416;2022-12-10T07:18:11;1.60;99.90
25753;DHT22;13600;50.816;4.416;2022-12-10T07:20:37;1.60;99.90
25753;DHT22;13600;50.816;4.416;2022-12-10T07:23:03;1.60;99.90
25753;DHT22;13600;50.816;4.416;2022-12-10T07:25:28;1.70;99.90
25753;DHT22;13600;50.816;4.416;2022-12-10T07:27:55;1.70;99.90
25753;DHT22;13600;50.816;4.416;2022-12-10T07:30:21;1.70;99.90
25753;DHT22;13600;50.816;4.416;2022-12-10T07:32:46;1.80;99.90
25753;DHT22;13600;50.816;4.416;2022-12-10T07:35:16;1.90;99.90
25753;DHT22;13600;50.816;4.416;2022-12-10T07:37:41;1.90;99.90
25753;DHT22;13600;50.816;4.416;2022-12-10T07:40:07;1.90;99.90
25753;DHT22;13600;50.816;4.416;2022-12-10T07:42:33;1.80;99.90
25753;DHT22;13600;50.816;4.416;2022-12-10T07:44:59;1.90;99.90
25753;DHT22;13600;50.816;4.416;2022-12-10T07:47:25;1.90;99.90
25753;DHT22;13600;50.816;4.416;2022-12-10T07:49:53;1.80;99.90
25753;DHT22;13600;50.816;4.416;2022-12-10T07:52:18;1.80;99.90
25753;DHT22;13600;50.816;4.416;2022-12-10T07:54:44;1.80;99.90
25753;DHT22;13600;50.816;4.416;2022-12-10T07:57:10;1.90;99.90
25753;DHT22;13600;50.816;4.416;2022-12-10T07:59:35;1.90;99.90
25753;DHT22;13600;50.816;4.416;2022-12-10T08:02:01;1.80;99.90
25753;DHT22;13600;50.816;4.416;2022-12-10T08:04:29;1.70;99.90
25753;DHT22;13600;50.816;4.416;2022-12-10T08:06:55;1.80;99.90
25753;DHT22;13600;50.816;4.416;2022-12-10T08:09:21;1.90;99.90
25753;DHT22;13600;50.816;4.416;2022-12-10T08:11:47;1.90;99.90
25753;DHT22;13600;50.816;4.416;2022-12-10T08:14:13;1.90;99.90
25753;DHT22;13600;50.816;4.416;2022-12-10T08:16:38;2.00;99.90
25753;DHT22;13600;50.816;4.416;2022-12-10T08:19:04;1.80;99.90
25753;DHT22;13600;50.816;4.416;2022-12-10T08:21:32;1.90;99.90
25753;DHT22;13600;50.816;4.416;2022-12-10T08:23:58;1.80;99.90
25753;DHT22;13600;50.816;4.416;2022-12-10T08:26:26;1.70;99.90
25753;DHT22;13600;50.816;4.416;2022-12-10T08:28:54;1.70;99.90
25753;DHT22;13600;50.816;4.416;2022-12-10T08:31:22;1.70;99.90
25753;DHT22;13600;50.816;4.416;2022-12-10T08:33:48;1.70;99.90
25753;DHT22;13600;50.816;4.416;2022-12-10T08:36:15;1.70;99.90
25753;DHT22;13600;50.816;4.416;2022-12-10T08:38:41;1.70;99.90
25753;DHT22;13600;50.816;4.416;2022-12-10T08:41:19;1.70;99.90
25753;DHT22;13600;50.816;4.416;2022-12-10T08:43:46;1.70;99.90
25753;DHT22;13600;50.816;4.416;2022-12-10T08:46:13;1.80;99.90
25753;DHT22;13600;50.816;4.416;2022-12-10T08:48:38;1.90;99.90
25753;DHT22;13600;50.816;4.416;2022-12-10T08:51:05;1.90;99.90
25753;DHT22;13600;50.816;4.416;2022-12-10T08:53:32;1.90;99.90
25753;DHT22;13600;50.816;4.416;2022-12-10T08:55:57;2.00;99.90
25753;DHT22;13600;50.816;4.416;2022-12-10T08:58:23;2.00;99.90
25753;DHT22;13600;50.816;4.416;2022-12-10T09:00:49;2.00;99.90
25753;DHT22;13600;50.816;4.416;2022-12-10T09:03:15;2.00;99.90
25753;DHT22;13600;50.816;4.416;2022-12-10T09:05:41;2.10;99.90
25753;DHT22;13600;50.816;4.416;2022-12-10T09:08:07;2.30;99.90
25753;DHT22;13600;50.816;4.416;2022-12-10T09:10:32;2.40;99.90
25753;DHT22;13600;50.816;4.416;2022-12-10T09:12:58;2.30;99.90
25753;DHT22;13600;50.816;4.416;2022-12-10T09:15:24;2.30;99.90
25753;DHT22;13600;50.816;4.416;2022-12-10T09:17:49;2.30;99.90
25753;DHT22;13600;50.816;4.416;2022-12-10T09:20:15;2.40;99.90
25753;DHT22;13600;50.816;4.416;2022-12-10T09:22:41;2.40;99.90
25753;DHT22;13600;50.816;4.416;2022-12-10T09:25:08;2.50;99.90
25753;DHT22;13600;50.816;4.416;2022-12-10T09:27:35;2.60;99.90
25753;DHT22;13600;50.816;4.416;2022-12-10T09:30:01;2.50;99.90
25753;DHT22;13600;50.816;4.416;2022-12-10T09:32:27;2.20;99.90
25753;DHT22;13600;50.816;4.416;2022-12-10T09:34:53;2.30;99.90
25753;DHT22;13600;50.816;4.416;2022-12-10T09:37:19;2.30;99.90
25753;DHT22;13600;50.816;4.416;2022-12-10T09:39:45;2.20;99.90
25753;DHT22;13600;50.816;4.416;2022-12-10T09:42:34;2.30;99.90
25753;DHT22;13600;50.816;4.416;2022-12-10T09:45:36;2.30;99.90
25753;DHT22;13600;50.816;4.416;2022-12-10T09:51:05;2.40;99.90
25753;DHT22;13600;50.816;4.416;2022-12-10T09:53:32;2.40;99.90
25753;DHT22;13600;50.816;4.416;2022-12-10T09:55:59;2.50;99.90
25753;DHT22;13600;50.816;4.416;2022-12-10T09:58:26;2.30;99.90
25753;DHT22;13600;50.816;4.416;2022-12-10T10:01:00;2.30;99.90
25753;DHT22;13600;50.816;4.416;2022-12-10T10:03:26;2.20;99.90
25753;DHT22;13600;50.816;4.416;2022-12-10T10:05:54;2.30;99.90
25753;DHT22;13600;50.816;4.416;2022-12-10T10:08:47;2.30;99.90
25753;DHT22;13600;50.816;4.416;2022-12-10T10:11:20;2.50;99.90
25753;DHT22;13600;50.816;4.416;2022-12-10T10:13:53;2.50;99.90
25753;DHT22;13600;50.816;4.416;2022-12-10T10:16:35;2.50;99.90
25753;DHT22;13600;50.816;4.416;2022-12-10T10:19:06;2.50;99.90
25753;DHT22;13600;50.816;4.416;2022-12-10T10:21:39;2.60;99.90
25753;DHT22;13600;50.816;4.416;2022-12-10T10:24:07;2.60;99.90
25753;DHT22;13600;50.816;4.416;2022-12-10T10:26:35;2.50;99.90
25753;DHT22;13600;50.816;4.416;2022-12-10T10:29:05;2.30;99.90
25753;DHT22;13600;50.816;4.416;2022-12-10T10:31:32;2.40;99.90
25753;DHT22;13600;50.816;4.416;2022-12-10T10:34:01;2.60;99.90
25753;DHT22;13600;50.816;4.416;2022-12-10T10:36:33;2.70;99.90
25753;DHT22;13600;50.816;4.416;2022-12-10T10:39:27;2.70;99.90
25753;DHT22;13600;50.816;4.416;2022-12-10T10:41:54;2.70;99.90
25753;DHT22;13600;50.816;4.416;2022-12-10T10:44:35;2.80;99.90
25753;DHT22;13600;50.816;4.416;2022-12-10T10:47:02;2.80;99.90
25753;DHT22;13600;50.816;4.416;2022-12-10T10:49:30;2.80;99.90
25753;DHT22;13600;50.816;4.416;2022-12-10T10:52:04;2.90;99.90
25753;DHT22;13600;50.816;4.416;2022-12-10T10:54:41;3.00;99.90
25753;DHT22;13600;50.816;4.416;2022-12-10T10:57:32;3.10;99.90
25753;DHT22;13600;50.816;4.416;2022-12-10T11:00:19;3.20;99.90
25753;DHT22;13600;50.816;4.416;2022-12-10T11:02:46;3.50;99.90
25753;DHT22;13600;50.816;4.416;2022-12-10T11:05:16;3.60;99.90
25753;DHT22;13600;50.816;4.416;2022-12-10T11:07:42;3.60;99.90
25753;DHT22;13600;50.816;4.416;2022-12-10T11:10:34;3.60;99.90
25753;DHT22;13600;50.816;4.416;2022-12-10T11:13:05;3.50;99.90
25753;DHT22;13600;50.816;4.416;2022-12-10T11:15:38;3.40;99.90
25753;DHT22;13600;50.816;4.416;2022-12-10T11:23:44;3.60;99.90
25753;DHT22;13600;50.816;4.416;2022-12-10T11:30:24;3.70;99.90
25753;DHT22;13600;50.816;4.416;2022-12-10T11:35:37;3.80;99.90
25753;DHT22;13600;50.816;4.416;2022-12-10T11:43:28;3.60;99.90
25753;DHT22;13600;50.816;4.416;2022-12-10T11:54:25;3.60;99.90
25753;DHT22;13600;50.816;4.416;2022-12-10T11:59:50;3.60;99.90
25753;DHT22;13600;50.816;4.416;2022-12-10T12:05:07;3.50;99.90
25753;DHT22;13600;50.816;4.416;2022-12-10T12:13:17;3.30;99.90
25753;DHT22;13600;50.816;4.416;2022-12-10T12:16:03;3.30;99.90
25753;DHT22;13600;50.816;4.416;2022-12-10T12:21:15;3.50;99.90
25753;DHT22;13600;50.816;4.416;2022-12-10T12:24:05;3.60;99.90
25753;DHT22;13600;50.816;4.416;2022-12-10T12:26:39;3.50;99.90
25753;DHT22;13600;50.816;4.416;2022-12-10T12:31:59;3.60;99.90
25753;DHT22;13600;50.816;4.416;2022-12-10T12:35:13;3.60;99.90
25753;DHT22;13600;50.816;4.416;2022-12-10T12:37:17;3.70;99.90
25753;DHT22;13600;50.816;4.416;2022-12-10T12:42:54;3.80;99.90
25753;DHT22;13600;50.816;4.416;2022-12-10T12:45:28;3.90;99.90
25753;DHT22;13600;50.816;4.416;2022-12-10T12:53:16;3.80;99.90
25753;DHT22;13600;50.816;4.416;2022-12-10T12:56:04;3.80;99.90
25753;DHT22;13600;50.816;4.416;2022-12-10T13:01:26;3.80;99.90
25753;DHT22;13600;50.816;4.416;2022-12-10T13:03:53;3.70;99.90
25753;DHT22;13600;50.816;4.416;2022-12-10T13:06:26;3.80;99.90
25753;DHT22;13600;50.816;4.416;2022-12-10T13:11:28;3.80;99.90
25753;DHT22;13600;50.816;4.416;2022-12-10T13:22:06;4.00;99.90
25753;DHT22;13600;50.816;4.416;2022-12-10T13:32:42;3.80;99.90
25753;DHT22;13600;50.816;4.416;2022-12-10T13:40:37;3.50;99.90
25753;DHT22;13600;50.816;4.416;2022-12-10T13:46:34;3.80;99.90
25753;DHT22;13600;50.816;4.416;2022-12-10T13:49:18;3.80;99.90
25753;DHT22;13600;50.816;4.416;2022-12-10T14:00:19;3.60;99.90
25753;DHT22;13600;50.816;4.416;2022-12-10T14:08:18;3.80;99.90
25753;DHT22;13600;50.816;4.416;2022-12-10T14:10:45;3.70;99.90
25753;DHT22;13600;50.816;4.416;2022-12-10T14:13:14;3.60;99.90
25753;DHT22;13600;50.816;4.416;2022-12-10T14:15:41;3.70;99.90
25753;DHT22;13600;50.816;4.416;2022-12-10T14:18:13;3.60;99.90
25753;DHT22;13600;50.816;4.416;2022-12-10T14:20:45;3.70;99.90
25753;DHT22;13600;50.816;4.416;2022-12-10T14:23:32;3.70;99.90
25753;DHT22;13600;50.816;4.416;2022-12-10T14:25:58;3.60;99.90
25753;DHT22;13600;50.816;4.416;2022-12-10T14:28:29;3.70;99.90
25753;DHT22;13600;50.816;4.416;2022-12-10T14:30:55;3.60;99.90
25753;DHT22;13600;50.816;4.416;2022-12-10T14:33:22;3.60;99.90
25753;DHT22;13600;50.816;4.416;2022-12-10T14:35:50;3.50;99.90
25753;DHT22;13600;50.816;4.416;2022-12-10T14:38:29;3.50;99.90
25753;DHT22;13600;50.816;4.416;2022-12-10T14:40:56;3.50;99.90
25753;DHT22;13600;50.816;4.416;2022-12-10T14:43:32;3.50;99.90
25753;DHT22;13600;50.816;4.416;2022-12-10T14:46:00;3.50;99.90
25753;DHT22;13600;50.816;4.416;2022-12-10T14:48:28;3.50;99.90
25753;DHT22;13600;50.816;4.416;2022-12-10T14:50:53;3.60;99.90
25753;DHT22;13600;50.816;4.416;2022-12-10T14:53:26;3.50;99.90
25753;DHT22;13600;50.816;4.416;2022-12-10T14:56:20;3.50;99.90
25753;DHT22;13600;50.816;4.416;2022-12-10T14:59:14;3.50;99.90
25753;DHT22;13600;50.816;4.416;2022-12-10T15:01:46;3.60;99.90
25753;DHT22;13600;50.816;4.416;2022-12-10T15:04:16;3.50;99.90
25753;DHT22;13600;50.816;4.416;2022-12-10T15:06:42;3.60;99.90
25753;DHT22;13600;50.816;4.416;2022-12-10T15:09:23;3.60;99.90
25753;DHT22;13600;50.816;4.416;2022-12-10T15:11:58;3.60;99.90
25753;DHT22;13600;50.816;4.416;2022-12-10T15:14:26;3.60;99.90
25753;DHT22;13600;50.816;4.416;2022-12-10T15:16:52;3.60;99.90
25753;DHT22;13600;50.816;4.416;2022-12-10T15:21:54;3.50;99.90
25753;DHT22;13600;50.816;4.416;2022-12-10T15:24:35;3.50;99.90
25753;DHT22;13600;50.816;4.416;2022-12-10T15:27:01;3.50;99.90
25753;DHT22;13600;50.816;4.416;2022-12-10T15:29:32;3.50;99.90
25753;DHT22;13600;50.816;4.416;2022-12-10T15:32:10;3.60;99.90
25753;DHT22;13600;50.816;4.416;2022-12-10T15:35:05;3.60;99.90
25753;DHT22;13600;50.816;4.416;2022-12-10T15:37:35;3.70;99.90
25753;DHT22;13600;50.816;4.416;2022-12-10T15:40:06;3.50;99.90
25753;DHT22;13600;50.816;4.416;2022-12-10T15:45:24;3.80;99.90
25753;DHT22;13600;50.816;4.416;2022-12-10T15:47:59;3.70;99.90
25753;DHT22;13600;50.816;4.416;2022-12-10T15:50:26;3.70;99.90
25753;DHT22;13600;50.816;4.416;2022-12-10T15:52:52;3.80;99.90
25753;DHT22;13600;50.816;4.416;2022-12-10T15:55:18;3.70;99.90
25753;DHT22;13600;50.816;4.416;2022-12-10T15:57:44;3.60;99.90
25753;DHT22;13600;50.816;4.416;2022-12-10T16:00:20;3.60;99.90
25753;DHT22;13600;50.816;4.416;2022-12-10T16:03:04;3.60;99.90
25753;DHT22;13600;50.816;4.416;2022-12-10T16:05:35;3.60;99.90
25753;DHT22;13600;50.816;4.416;2022-12-10T16:10:39;3.60;99.90
25753;DHT22;13600;50.816;4.416;2022-12-10T16:13:09;3.60;99.90
25753;DHT22;13600;50.816;4.416;2022-12-10T16:15:48;3.50;99.90
25753;DHT22;13600;50.816;4.416;2022-12-10T16:18:16;3.50;99.90
25753;DHT22;13600;50.816;4.416;2022-12-10T16:20:42;3.60;99.90
25753;DHT22;13600;50.816;4.416;2022-12-10T16:23:07;3.50;99.90
25753;DHT22;13600;50.816;4.416;2022-12-10T16:25:35;3.50;99.90
25753;DHT22;13600;50.816;4.416;2022-12-10T16:28:02;3.60;99.90
25753;DHT22;13600;50.816;4.416;2022-12-10T16:30:35;3.60;99.90
25753;DHT22;13600;50.816;4.416;2022-12-10T16:33:02;3.70;99.90
25753;DHT22;13600;50.816;4.416;2022-12-10T16:35:28;3.70;99.90
25753;DHT22;13600;50.816;4.416;2022-12-10T16:37:53;3.70;99.90
25753;DHT22;13600;50.816;4.416;2022-12-10T16:40:25;3.70;99.90
25753;DHT22;13600;50.816;4.416;2022-12-10T16:42:51;3.60;99.90
25753;DHT22;13600;50.816;4.416;2022-12-10T16:45:38;3.60;99.90
25753;DHT22;13600;50.816;4.416;2022-12-10T16:48:04;3.60;99.90
25753;DHT22;13600;50.816;4.416;2022-12-10T16:50:30;3.60;99.90
25753;DHT22;13600;50.816;4.416;2022-12-10T16:52:56;3.70;99.90
25753;DHT22;13600;50.816;4.416;2022-12-10T16:55:24;3.60;99.90
25753;DHT22;13600;50.816;4.416;2022-12-10T16:57:51;3.60;99.90
25753;DHT22;13600;50.816;4.416;2022-12-10T17:00:21;3.60;99.90
25753;DHT22;13600;50.816;4.416;2022-12-10T17:02:48;3.60;99.90
25753;DHT22;13600;50.816;4.416;2022-12-10T17:07:42;3.60;99.90
25753;DHT22;13600;50.816;4.416;2022-12-10T17:10:11;3.60;99.90
25753;DHT22;13600;50.816;4.416;2022-12-10T17:12:37;3.60;99.90
25753;DHT22;13600;50.816;4.416;2022-12-10T17:15:03;3.50;99.90
25753;DHT22;13600;50.816;4.416;2022-12-10T17:17:29;3.50;99.90
25753;DHT22;13600;50.816;4.416;2022-12-10T17:19:55;3.50;99.90
25753;DHT22;13600;50.816;4.416;2022-12-10T17:22:21;3.50;99.90
25753;DHT22;13600;50.816;4.416;2022-12-10T17:24:46;3.40;99.90
25753;DHT22;13600;50.816;4.416;2022-12-10T17:27:16;3.40;99.90
25753;DHT22;13600;50.816;4.416;2022-12-10T17:29:44;3.40;99.90
25753;DHT22;13600;50.816;4.416;2022-12-10T17:32:19;3.60;99.90
25753;DHT22;13600;50.816;4.416;2022-12-10T17:34:45;3.60;99.90
25753;DHT22;13600;50.816;4.416;2022-12-10T17:37:13;3.60;99.90
25753;DHT22;13600;50.816;4.416;2022-12-10T17:39:40;3.70;99.90
25753;DHT22;13600;50.816;4.416;2022-12-10T17:42:05;3.60;99.90
25753;DHT22;13600;50.816;4.416;2022-12-10T17:44:33;3.40;99.90
25753;DHT22;13600;50.816;4.416;2022-12-10T17:46:59;3.50;99.90
25753;DHT22;13600;50.816;4.416;2022-12-10T17:49:26;3.50;99.90
25753;DHT22;13600;50.816;4.416;2022-12-10T17:51:51;3.70;99.90
25753;DHT22;13600;50.816;4.416;2022-12-10T17:54:18;3.70;99.90
25753;DHT22;13600;50.816;4.416;2022-12-10T17:56:44;3.70;99.90
25753;DHT22;13600;50.816;4.416;2022-12-10T17:59:13;3.80;99.90
25753;DHT22;13600;50.816;4.416;2022-12-10T18:01:39;3.90;99.90
25753;DHT22;13600;50.816;4.416;2022-12-10T18:04:05;4.00;99.90
25753;DHT22;13600;50.816;4.416;2022-12-10T18:06:31;3.90;99.90
25753;DHT22;13600;50.816;4.416;2022-12-10T18:08:59;3.80;99.90
25753;DHT22;13600;50.816;4.416;2022-12-10T18:11:31;3.70;99.90